EGAA/BFS METAR and TAF weather

Enter ICAO airport designator
Station Type Date Time Source
EGAA METAR 2022/07/01 01:20 UTC NOAA

EGAA 010120Z AUTO VRB02KT 9999 NCD 12/10 Q1012


Station Type Date Time Source
EGAA Decoded METAR 2022/07/01 01:20 UTC NOAA

Belfast / Aldergrove Airport, United Kingdom (EGAA) 54-39N 006-13W 0M
Jun 30, 2022 - 09:20 PM EDT / 2022.07.01 0120 UTC
Wind: Variable at 2 MPH (2 KT):0
Visibility: greater than 7 mile(s):0
Temperature: 53 F (12 C)
Dew Point: 50 F (10 C)
Relative Humidity: 87%
Pressure (altimeter): 29.88 in. Hg (1012 hPa)
ob: EGAA 010120Z AUTO VRB02KT 9999 NCD 12/10 Q1012
cycle: 1

Station Type Date Time Source
EGAA TAF 2022/06/30 18:09 UTC NOAA

TAF TAF EGAA 301654Z 3018/0118 VRB05KT 9999 SCT035 PROB30
TEMPO 3018/3020 7000 SHRA PROB30
TEMPO 0101/0105 BKN012
BECMG 0105/0109 22010KT
TEMPO 0105/0110 BKN010 PROB30
TEMPO 0108/0115 8000 -SHRA
TEMPO 0116/0118 7000 RA PROB30
TEMPO 0116/0118 4000 +RA

Example: see airport list